Pine Bank, Pennsylvania
Current Conditions -  °F | °C
As of 10:53 AM on Tuesday 21 Oct 2014 (Local Time) from KMGW Reporting Station
Haze Haze  
Wind Chill: 54°   Ceiling: 1100
Heat Index: 54°   Visibility: 6mi
Dew Point: 47°   Wind: 0mph
Humidity: 77%   Direction: NA
Pressure: 29.9"   Gusts: NA
Location:  39.76°N, 80.31°W
Report Text: KMGW 211453Z 00000KT 6SM HZ OVC011 12/08 A2990 RMK AO2 CIG 009V015 SLP125 T01220083 50002
Loading
Personal Weather Stations






























Interactive Weather Map
Tropical Storm Tracking
New forecast layout! Learn more

10-Day Weather Forecast

Advertisements
Track Severe Weather on mobile